createdAt,value
2022-08-26T00:01:42.071Z,3.08
2022-08-26T00:04:11.837Z,3.13
2022-08-26T00:06:42.313Z,2.80
2022-08-26T00:09:09.777Z,2.90
2022-08-26T00:11:37.003Z,3.00
2022-08-26T00:14:03.636Z,2.50
2022-08-26T00:16:30.257Z,2.90
2022-08-26T00:18:57.356Z,3.05
2022-08-26T00:21:24.843Z,3.00
2022-08-26T00:23:51.397Z,2.70
2022-08-26T00:26:18.739Z,2.90
2022-08-26T00:28:47.388Z,2.80
2022-08-26T00:31:14.352Z,2.65
2022-08-26T00:33:41.156Z,2.97
2022-08-26T00:36:09.429Z,2.72
2022-08-26T00:38:46.476Z,2.72
2022-08-26T00:41:13.110Z,2.65
2022-08-26T00:43:46.291Z,2.70
2022-08-26T00:46:19.358Z,2.55
2022-08-26T00:48:50.371Z,2.63
2022-08-26T00:51:21.936Z,2.80
2022-08-26T00:53:57.701Z,2.70
2022-08-26T00:56:34.472Z,2.40
2022-08-26T00:59:06.805Z,2.70
2022-08-26T01:01:34.009Z,2.70
2022-08-26T01:04:01.351Z,2.85
2022-08-26T01:06:28.667Z,2.60
2022-08-26T01:08:56.094Z,2.30
2022-08-26T01:11:24.025Z,2.58
2022-08-26T01:13:54.713Z,2.53
2022-08-26T01:16:21.960Z,2.60
2022-08-26T01:18:49.037Z,2.40
2022-08-26T01:21:28.619Z,2.60
2022-08-26T01:23:57.942Z,2.50
2022-08-26T01:26:29.701Z,2.40
2022-08-26T01:28:58.730Z,2.40
2022-08-26T01:31:29.044Z,2.50
2022-08-26T01:34:03.244Z,2.50
2022-08-26T01:36:30.749Z,2.60
2022-08-26T01:38:57.570Z,2.20
2022-08-26T01:41:27.451Z,2.40
2022-08-26T01:43:57.909Z,2.30
2022-08-26T01:46:26.879Z,2.30
2022-08-26T01:48:55.280Z,2.47
2022-08-26T01:51:24.459Z,2.20
2022-08-26T01:53:51.062Z,2.08
2022-08-26T01:56:17.695Z,2.17
2022-08-26T01:59:07.278Z,2.42
2022-08-26T02:01:36.264Z,2.30
2022-08-26T02:04:26.149Z,2.03
2022-08-26T02:06:53.596Z,2.03
2022-08-26T02:09:21.741Z,2.10
2022-08-26T02:11:48.623Z,2.47
2022-08-26T02:14:22.931Z,2.00
2022-08-26T02:16:54.135Z,2.00
2022-08-26T02:19:29.070Z,2.30
2022-08-26T02:21:58.095Z,2.20
2022-08-26T02:24:28.405Z,2.13
2022-08-26T02:27:00.644Z,2.13
2022-08-26T02:29:34.568Z,2.00
2022-08-26T02:32:01.400Z,1.90
2022-08-26T02:34:32.741Z,2.10
2022-08-26T02:37:01.815Z,2.10
2022-08-26T02:39:30.067Z,1.80
2022-08-26T02:41:56.761Z,1.88
2022-08-26T02:44:23.480Z,2.00
2022-08-26T02:46:52.830Z,1.90
2022-08-26T02:49:21.227Z,2.00
2022-08-26T02:51:49.519Z,1.65
2022-08-26T02:54:17.288Z,1.83
2022-08-26T02:56:44.498Z,1.70
2022-08-26T02:59:14.127Z,2.00
2022-08-26T03:01:41.985Z,1.90
2022-08-26T03:04:10.832Z,1.70
2022-08-26T03:06:38.004Z,1.80
2022-08-26T03:09:05.871Z,1.75
2022-08-26T03:11:33.415Z,1.63
2022-08-26T03:14:00.621Z,1.70
2022-08-26T03:16:35.562Z,1.80
2022-08-26T03:19:04.084Z,1.70
2022-08-26T03:21:30.805Z,1.70
2022-08-26T03:23:58.727Z,1.73
2022-08-26T03:26:26.977Z,1.80
2022-08-26T03:29:13.356Z,1.80
2022-08-26T03:31:40.173Z,1.58
2022-08-26T03:34:07.139Z,1.75
2022-08-26T03:36:35.200Z,1.70
2022-08-26T03:39:02.091Z,1.60
2022-08-26T03:41:29.169Z,1.42
2022-08-26T03:44:00.952Z,1.70
2022-08-26T03:46:28.363Z,1.52
2022-08-26T03:48:55.155Z,1.60
2022-08-26T03:51:21.698Z,1.60
2022-08-26T03:53:48.372Z,1.40
2022-08-26T03:56:15.064Z,1.70
2022-08-26T03:58:43.892Z,1.63
2022-08-26T04:01:16.298Z,1.50
2022-08-26T04:04:00.225Z,1.42
2022-08-26T04:06:34.247Z,1.58
2022-08-26T04:09:05.290Z,1.70
2022-08-26T04:11:34.289Z,1.30
2022-08-26T04:14:04.348Z,1.58
2022-08-26T04:16:32.701Z,1.50
2022-08-26T04:18:59.497Z,1.38
2022-08-26T04:21:28.638Z,1.27
2022-08-26T04:23:56.103Z,1.40
2022-08-26T04:26:26.136Z,1.60
2022-08-26T04:28:55.639Z,1.42
2022-08-26T04:31:22.766Z,1.30
2022-08-26T04:33:50.812Z,1.45
2022-08-26T04:36:20.178Z,1.40
2022-08-26T04:38:47.449Z,1.30
2022-08-26T04:41:15.040Z,1.33
2022-08-26T04:43:44.652Z,1.45
2022-08-26T04:46:12.924Z,1.20
2022-08-26T04:48:41.110Z,1.20
2022-08-26T04:51:09.657Z,1.05
2022-08-26T04:53:37.283Z,1.30
2022-08-26T04:56:04.987Z,1.30
2022-08-26T04:58:32.041Z,1.30
2022-08-26T05:00:58.680Z,1.25
2022-08-26T05:03:30.259Z,1.30
2022-08-26T05:05:57.405Z,1.30
2022-08-26T05:08:24.498Z,1.20
2022-08-26T05:10:57.439Z,1.65
2022-08-26T05:13:27.349Z,1.55
2022-08-26T05:15:54.555Z,1.30
2022-08-26T05:18:24.260Z,1.35
2022-08-26T05:20:53.896Z,1.60
2022-08-26T05:23:22.706Z,1.15
2022-08-26T05:25:54.608Z,1.42
2022-08-26T05:28:22.679Z,1.20
2022-08-26T05:30:51.735Z,1.20
2022-08-26T05:33:19.557Z,1.00
2022-08-26T05:35:46.461Z,1.08
2022-08-26T05:38:17.331Z,1.20
2022-08-26T05:40:46.787Z,1.10
2022-08-26T05:43:14.274Z,1.20
2022-08-26T05:45:45.828Z,1.33
2022-08-26T05:48:14.295Z,1.02
2022-08-26T05:50:43.695Z,1.30
2022-08-26T05:53:12.248Z,1.00
2022-08-26T05:55:50.362Z,1.00
2022-08-26T05:58:20.216Z,1.42
2022-08-26T06:00:55.953Z,1.20
2022-08-26T06:03:22.541Z,1.25
2022-08-26T06:05:49.070Z,1.30
2022-08-26T06:08:15.797Z,1.13
2022-08-26T06:10:51.014Z,1.15
2022-08-26T06:13:24.061Z,1.10
2022-08-26T06:15:51.889Z,1.13
2022-08-26T06:18:22.884Z,1.25
2022-08-26T06:20:57.164Z,1.17
2022-08-26T06:23:43.737Z,1.08
2022-08-26T06:26:11.211Z,1.02
2022-08-26T06:28:37.949Z,1.38
2022-08-26T06:31:06.148Z,0.98
2022-08-26T06:33:33.431Z,1.20
2022-08-26T06:36:01.197Z,1.35
2022-08-26T06:38:28.501Z,1.23
2022-08-26T06:40:55.421Z,1.25
2022-08-26T06:43:25.265Z,1.10
2022-08-26T06:45:52.669Z,1.30
2022-08-26T06:48:21.474Z,0.95
2022-08-26T06:50:48.274Z,1.10
2022-08-26T06:53:17.203Z,1.30
2022-08-26T06:55:46.159Z,1.10
2022-08-26T06:58:14.265Z,1.13
2022-08-26T07:00:44.723Z,1.00
2022-08-26T07:03:14.172Z,1.23
2022-08-26T07:05:40.823Z,1.48
2022-08-26T07:08:07.561Z,1.20
2022-08-26T07:10:36.377Z,0.98
2022-08-26T07:13:02.903Z,1.17
2022-08-26T07:15:33.626Z,1.30
2022-08-26T07:18:00.201Z,1.30
2022-08-26T07:20:26.939Z,1.13
2022-08-26T07:22:53.938Z,1.10
2022-08-26T07:25:20.913Z,1.20
2022-08-26T07:27:54.328Z,1.20
2022-08-26T07:30:21.462Z,0.80
2022-08-26T07:32:48.287Z,1.20
2022-08-26T07:35:14.873Z,1.30
2022-08-26T07:37:42.495Z,1.35
2022-08-26T07:40:09.652Z,1.35
2022-08-26T07:42:36.242Z,1.13
2022-08-26T07:45:02.826Z,1.08
2022-08-26T07:47:29.457Z,1.20
2022-08-26T07:49:57.578Z,1.30
2022-08-26T07:52:27.376Z,1.13
2022-08-26T07:54:58.189Z,1.30
2022-08-26T07:57:26.317Z,1.00
2022-08-26T07:59:55.230Z,1.02
2022-08-26T08:02:24.161Z,1.05
2022-08-26T08:04:51.810Z,1.00
2022-08-26T08:07:18.555Z,1.35
2022-08-26T08:09:45.385Z,1.30
2022-08-26T08:12:14.229Z,1.17
2022-08-26T08:14:41.107Z,1.20
2022-08-26T08:17:08.475Z,1.35
2022-08-26T08:19:36.622Z,1.30
2022-08-26T08:22:17.139Z,1.08
2022-08-26T08:24:44.729Z,1.05
2022-08-26T08:27:11.276Z,1.30
2022-08-26T08:29:38.675Z,1.13
2022-08-26T08:32:05.579Z,1.30
2022-08-26T08:34:38.328Z,1.10
2022-08-26T08:37:08.675Z,1.50
2022-08-26T08:39:37.250Z,1.40
2022-08-26T08:42:25.777Z,1.10
2022-08-26T08:44:55.755Z,1.20
2022-08-26T08:47:35.961Z,1.55
2022-08-26T08:50:21.216Z,1.23
2022-08-26T08:52:56.603Z,1.30
2022-08-26T08:55:30.297Z,1.00
2022-08-26T08:58:10.061Z,1.00
2022-08-26T09:00:46.496Z,1.00
2022-08-26T09:03:16.682Z,1.00
2022-08-26T09:05:48.650Z,1.20
2022-08-26T09:08:20.025Z,1.40
2022-08-26T09:10:57.346Z,0.90
2022-08-26T09:13:25.156Z,1.05
2022-08-26T09:16:01.684Z,1.08
2022-08-26T09:18:55.856Z,1.30
2022-08-26T09:21:25.259Z,0.85
2022-08-26T09:23:55.703Z,1.55
2022-08-26T09:26:30.927Z,1.10
2022-08-26T09:29:04.341Z,0.95
2022-08-26T09:31:34.176Z,1.15
2022-08-26T09:34:17.305Z,1.40
2022-08-26T09:36:48.652Z,1.05
2022-08-26T09:39:24.212Z,1.10
2022-08-26T09:42:07.680Z,1.13
2022-08-26T09:44:57.129Z,1.08
2022-08-26T09:47:34.072Z,1.20
2022-08-26T09:50:24.146Z,1.00
2022-08-26T09:53:10.015Z,1.10
2022-08-26T09:55:42.358Z,1.02
2022-08-26T09:58:15.122Z,1.00
2022-08-26T10:00:52.764Z,1.00
2022-08-26T10:03:33.962Z,1.08
2022-08-26T10:06:08.247Z,1.13
2022-08-26T10:08:42.459Z,1.30
2022-08-26T10:11:50.898Z,0.95
2022-08-26T10:14:31.444Z,1.00
2022-08-26T10:17:07.532Z,1.20
2022-08-26T10:19:56.568Z,1.17
2022-08-26T10:22:45.632Z,0.80
2022-08-26T10:25:20.285Z,1.00
2022-08-26T10:28:05.666Z,0.90
2022-08-26T10:30:40.499Z,1.00
2022-08-26T10:33:14.593Z,1.10
2022-08-26T10:35:51.171Z,0.90
2022-08-26T10:38:23.894Z,0.98
2022-08-26T10:41:13.944Z,1.13
2022-08-26T10:43:51.347Z,0.90
2022-08-26T10:46:22.484Z,0.70
2022-08-26T10:49:08.534Z,1.00
2022-08-26T10:51:42.674Z,1.13
2022-08-26T10:54:22.020Z,1.10
2022-08-26T10:56:50.256Z,1.05
2022-08-26T10:59:35.227Z,1.02
2022-08-26T11:02:21.552Z,1.00
2022-08-26T11:04:58.232Z,1.20
2022-08-26T11:07:42.004Z,0.90
2022-08-26T11:10:31.084Z,0.98
2022-08-26T11:13:00.867Z,0.90
2022-08-26T11:15:29.226Z,0.93
2022-08-26T11:18:02.022Z,1.13
2022-08-26T11:20:42.334Z,1.00
2022-08-26T11:23:24.098Z,0.90
2022-08-26T11:25:57.278Z,0.80
2022-08-26T11:28:48.625Z,1.02
2022-08-26T11:31:24.488Z,0.85
2022-08-26T11:33:57.446Z,1.20
2022-08-26T11:36:51.674Z,1.02
2022-08-26T11:39:25.652Z,1.00
2022-08-26T11:41:55.554Z,1.00
2022-08-26T11:44:37.348Z,0.95
2022-08-26T11:47:05.354Z,1.02
2022-08-26T11:49:38.933Z,1.08
2022-08-26T11:52:20.791Z,1.10
2022-08-26T11:55:01.966Z,0.80
2022-08-26T11:57:29.555Z,0.90
2022-08-26T11:59:56.769Z,1.15
2022-08-26T12:02:23.631Z,0.90
2022-08-26T12:04:52.196Z,1.17
2022-08-26T12:07:24.469Z,0.93
2022-08-26T12:09:58.335Z,1.15
2022-08-26T12:12:35.007Z,1.10
2022-08-26T12:15:13.772Z,1.05
2022-08-26T12:17:41.949Z,0.80
2022-08-26T12:20:18.997Z,1.15
2022-08-26T12:22:47.971Z,0.80
2022-08-26T12:25:22.996Z,1.00
2022-08-26T12:27:53.717Z,0.95
2022-08-26T12:30:24.529Z,1.15
2022-08-26T12:33:21.953Z,1.00
2022-08-26T12:35:51.462Z,0.88
2022-08-26T12:38:21.577Z,1.15
2022-08-26T12:40:50.275Z,0.95
2022-08-26T12:43:39.029Z,1.13
2022-08-26T12:46:06.943Z,1.30
2022-08-26T12:48:36.548Z,1.55
2022-08-26T12:51:05.979Z,1.20
2022-08-26T12:53:34.640Z,1.38
2022-08-26T12:56:19.566Z,1.25
2022-08-26T12:59:01.294Z,1.20
2022-08-26T13:01:27.982Z,1.33
2022-08-26T13:03:54.750Z,1.27
2022-08-26T13:06:23.993Z,0.90
2022-08-26T13:09:09.537Z,1.35
2022-08-26T13:11:40.872Z,1.10
2022-08-26T13:14:18.363Z,1.10
2022-08-26T13:16:50.605Z,1.42
2022-08-26T13:19:20.144Z,1.48
2022-08-26T13:21:55.437Z,1.30
2022-08-26T13:24:28.683Z,1.10
2022-08-26T13:26:56.075Z,1.08
2022-08-26T13:29:23.114Z,1.15
2022-08-26T13:31:50.577Z,0.90
2022-08-26T13:34:19.826Z,0.98
2022-08-26T13:36:48.607Z,0.88
2022-08-26T13:39:16.652Z,1.00
2022-08-26T13:41:43.514Z,1.00
2022-08-26T13:44:12.959Z,0.90
2022-08-26T13:46:40.139Z,1.08
2022-08-26T13:49:07.094Z,0.90
2022-08-26T13:51:34.037Z,1.00
2022-08-26T13:54:00.694Z,1.10
2022-08-26T13:56:29.751Z,0.93
2022-08-26T13:58:57.853Z,0.88
2022-08-26T14:01:25.075Z,0.90
2022-08-26T14:03:52.250Z,1.10
2022-08-26T14:06:19.478Z,1.05
2022-08-26T14:08:46.662Z,0.90
2022-08-26T14:11:13.273Z,0.98
2022-08-26T14:13:40.772Z,0.75
2022-08-26T14:16:10.723Z,1.00
2022-08-26T14:18:43.027Z,0.80
2022-08-26T14:21:13.259Z,1.10
2022-08-26T14:23:40.306Z,0.98
2022-08-26T14:26:12.004Z,1.20
2022-08-26T14:28:55.962Z,1.00
2022-08-26T14:31:23.961Z,1.30
2022-08-26T14:33:50.758Z,1.17
2022-08-26T14:36:29.513Z,1.10
2022-08-26T14:38:58.299Z,1.10
2022-08-26T14:41:25.537Z,1.20
2022-08-26T14:44:00.278Z,1.10
2022-08-26T14:46:31.489Z,0.88
2022-08-26T14:49:01.732Z,1.02
2022-08-26T14:51:31.088Z,1.00
2022-08-26T14:54:12.600Z,1.10
2022-08-26T14:56:58.630Z,1.05
2022-08-26T14:59:31.100Z,1.42
2022-08-26T15:01:58.475Z,0.90
2022-08-26T15:04:25.498Z,1.13
2022-08-26T15:06:54.199Z,0.93
2022-08-26T15:09:21.470Z,1.30
2022-08-26T15:11:48.582Z,1.00
2022-08-26T15:14:19.249Z,1.20
2022-08-26T15:16:48.565Z,1.00
2022-08-26T15:19:16.066Z,0.93
2022-08-26T15:21:43.461Z,1.20
2022-08-26T15:24:10.161Z,1.10
2022-08-26T15:26:36.834Z,1.30
2022-08-26T15:29:05.275Z,1.52
2022-08-26T15:31:33.061Z,1.30
2022-08-26T15:34:14.570Z,1.35
2022-08-26T15:36:44.968Z,1.20
2022-08-26T15:39:12.288Z,1.42
2022-08-26T15:41:39.259Z,1.58
2022-08-26T15:44:07.499Z,1.77
2022-08-26T15:46:35.081Z,1.20
2022-08-26T15:49:03.805Z,1.42
2022-08-26T15:51:45.813Z,1.35
2022-08-26T15:54:14.058Z,1.60
2022-08-26T15:56:40.687Z,1.52
2022-08-26T15:59:08.367Z,1.50
2022-08-26T16:01:36.319Z,1.50
2022-08-26T16:04:03.850Z,1.70
2022-08-26T16:06:33.758Z,1.70
2022-08-26T16:09:01.066Z,1.50
2022-08-26T16:11:28.601Z,1.33
2022-08-26T16:13:55.244Z,1.60
2022-08-26T16:16:21.935Z,1.50
2022-08-26T16:18:49.685Z,1.65
2022-08-26T16:21:25.291Z,1.23
2022-08-26T16:23:52.307Z,1.20
2022-08-26T16:26:22.414Z,1.33
2022-08-26T16:28:49.029Z,1.20
2022-08-26T16:31:16.206Z,1.48
2022-08-26T16:33:42.855Z,1.30
2022-08-26T16:36:10.587Z,1.35
2022-08-26T16:38:38.244Z,1.27
2022-08-26T16:41:04.959Z,1.40
2022-08-26T16:43:31.837Z,1.40
2022-08-26T16:45:58.708Z,1.40
2022-08-26T16:48:25.404Z,1.40
2022-08-26T16:50:52.084Z,1.52
2022-08-26T16:53:19.108Z,1.38
2022-08-26T16:55:47.801Z,1.40
2022-08-26T16:58:14.931Z,1.30
2022-08-26T17:00:41.902Z,1.20
2022-08-26T17:03:09.287Z,1.52
2022-08-26T17:05:36.372Z,1.40
2022-08-26T17:08:04.565Z,1.60
2022-08-26T17:10:31.731Z,1.25
2022-08-26T17:12:58.576Z,1.20
2022-08-26T17:15:25.862Z,1.30
2022-08-26T17:17:53.635Z,1.42
2022-08-26T17:20:22.383Z,1.40
2022-08-26T17:22:50.301Z,1.40
2022-08-26T17:25:24.121Z,1.30
2022-08-26T17:27:50.735Z,1.23
2022-08-26T17:30:18.041Z,1.80
2022-08-26T17:32:45.523Z,1.35
2022-08-26T17:35:13.719Z,1.30
2022-08-26T17:37:41.190Z,1.42
2022-08-26T17:40:11.228Z,1.42
2022-08-26T17:42:39.141Z,1.50
2022-08-26T17:45:06.331Z,1.38
2022-08-26T17:47:33.302Z,1.40
2022-08-26T17:50:01.242Z,1.13
2022-08-26T17:52:28.832Z,1.40
2022-08-26T17:54:56.413Z,1.30
2022-08-26T17:57:24.055Z,1.42
2022-08-26T17:59:51.171Z,1.30
2022-08-26T18:02:21.082Z,1.58
2022-08-26T18:04:48.364Z,1.42
2022-08-26T18:07:16.076Z,1.23
2022-08-26T18:09:43.052Z,1.20
2022-08-26T18:12:10.174Z,1.23
2022-08-26T18:14:36.943Z,1.50
2022-08-26T18:17:04.439Z,1.20
2022-08-26T18:19:31.457Z,1.30
2022-08-26T18:21:58.630Z,1.50
2022-08-26T18:24:25.397Z,1.30
2022-08-26T18:26:52.049Z,1.33
2022-08-26T18:29:19.761Z,1.40
2022-08-26T18:31:46.612Z,1.42
2022-08-26T18:34:15.439Z,1.30
2022-08-26T18:36:42.973Z,1.23
2022-08-26T18:39:10.212Z,1.48
2022-08-26T18:41:43.100Z,1.48
2022-08-26T18:44:13.412Z,1.40
2022-08-26T18:46:40.865Z,1.50
2022-08-26T18:49:08.351Z,1.20
2022-08-26T18:51:35.275Z,1.35
2022-08-26T18:54:05.419Z,1.15
2022-08-26T18:56:33.648Z,1.20
2022-08-26T18:59:00.541Z,1.02
2022-08-26T19:01:28.467Z,1.13
2022-08-26T19:03:59.572Z,1.23
2022-08-26T19:06:28.257Z,1.30
2022-08-26T19:08:55.701Z,1.45
2022-08-26T19:11:32.153Z,1.30
2022-08-26T19:14:03.050Z,1.15
2022-08-26T19:16:30.537Z,1.27
2022-08-26T19:18:58.356Z,1.27
2022-08-26T19:21:25.028Z,1.30
2022-08-26T19:23:52.228Z,1.50
2022-08-26T19:26:19.363Z,1.10
2022-08-26T19:28:46.156Z,1.08
2022-08-26T19:31:12.745Z,1.20
2022-08-26T19:33:41.869Z,1.30
2022-08-26T19:36:14.838Z,1.30
2022-08-26T19:38:42.811Z,1.20
2022-08-26T19:41:14.776Z,1.40
2022-08-26T19:43:42.249Z,1.10
2022-08-26T19:46:18.214Z,1.40
2022-08-26T19:48:46.134Z,1.20
2022-08-26T19:51:15.699Z,1.27
2022-08-26T19:53:47.305Z,1.15
2022-08-26T19:56:14.669Z,1.33
2022-08-26T19:58:41.976Z,1.45
2022-08-26T20:01:09.343Z,1.30
2022-08-26T20:03:36.432Z,1.30
2022-08-26T20:06:05.228Z,1.30
2022-08-26T20:08:33.095Z,1.17
2022-08-26T20:11:01.932Z,1.42
2022-08-26T20:13:28.635Z,1.33
2022-08-26T20:15:55.193Z,1.30
2022-08-26T20:18:40.165Z,1.23
2022-08-26T20:21:25.639Z,1.30
2022-08-26T20:24:05.295Z,0.98
2022-08-26T20:26:34.661Z,1.15
2022-08-26T20:29:01.547Z,1.35
2022-08-26T20:31:28.630Z,1.23
2022-08-26T20:33:55.787Z,1.40
2022-08-26T20:36:24.026Z,1.67
2022-08-26T20:38:50.698Z,1.08
2022-08-26T20:41:18.347Z,1.50
2022-08-26T20:43:46.603Z,1.30
2022-08-26T20:46:18.215Z,1.17
2022-08-26T20:48:46.681Z,1.30
2022-08-26T20:51:13.309Z,1.45
2022-08-26T20:53:40.188Z,1.30
2022-08-26T20:56:08.769Z,1.30
2022-08-26T20:58:35.842Z,1.30
2022-08-26T21:01:07.357Z,1.38
2022-08-26T21:03:35.028Z,1.38
2022-08-26T21:06:03.229Z,1.27
2022-08-26T21:08:29.879Z,1.38
2022-08-26T21:11:00.057Z,1.40
2022-08-26T21:13:26.692Z,1.52
2022-08-26T21:15:56.670Z,1.52
2022-08-26T21:18:23.302Z,1.40
2022-08-26T21:20:51.603Z,1.23
2022-08-26T21:23:18.659Z,1.42
2022-08-26T21:25:45.817Z,1.48
2022-08-26T21:28:12.764Z,1.40
2022-08-26T21:30:41.028Z,1.40
2022-08-26T21:33:08.653Z,1.17
2022-08-26T21:35:35.725Z,1.25
2022-08-26T21:38:02.414Z,1.42
2022-08-26T21:40:29.130Z,1.40
2022-08-26T21:42:55.818Z,1.30
2022-08-26T21:45:22.692Z,1.52
2022-08-26T21:47:49.335Z,1.38
2022-08-26T21:50:16.050Z,1.40
2022-08-26T21:52:42.665Z,1.40
2022-08-26T21:55:11.807Z,1.40
2022-08-26T21:57:38.590Z,1.45
2022-08-26T22:00:08.933Z,1.40
2022-08-26T22:02:37.012Z,1.40
2022-08-26T22:05:04.135Z,1.20
2022-08-26T22:07:30.822Z,1.40
2022-08-26T22:09:57.581Z,1.20
2022-08-26T22:12:24.206Z,1.30
2022-08-26T22:14:50.865Z,1.40
2022-08-26T22:17:17.638Z,1.30
2022-08-26T22:19:46.234Z,1.20
2022-08-26T22:22:14.105Z,1.38
2022-08-26T22:24:40.972Z,1.40
2022-08-26T22:27:07.573Z,1.30
2022-08-26T22:29:34.393Z,1.30
2022-08-26T22:32:01.584Z,1.15
2022-08-26T22:34:28.302Z,1.20
2022-08-26T22:36:55.134Z,1.42
2022-08-26T22:39:23.857Z,1.40
2022-08-26T22:41:51.851Z,1.15
2022-08-26T22:44:20.588Z,1.45
2022-08-26T22:46:48.661Z,1.30
2022-08-26T22:49:18.399Z,1.20
2022-08-26T22:51:46.107Z,1.23
2022-08-26T22:54:14.020Z,1.30
2022-08-26T22:56:40.871Z,1.20
2022-08-26T22:59:08.327Z,1.33
2022-08-26T23:01:42.471Z,1.20
2022-08-26T23:04:09.665Z,1.48
2022-08-26T23:06:38.203Z,1.08
2022-08-26T23:09:06.541Z,1.10
2022-08-26T23:11:33.850Z,1.27
2022-08-26T23:14:02.304Z,1.30
2022-08-26T23:16:39.598Z,1.30
2022-08-26T23:19:07.588Z,0.90
2022-08-26T23:21:34.691Z,1.10
2022-08-26T23:24:02.394Z,1.33
2022-08-26T23:26:28.986Z,1.20
2022-08-26T23:28:55.666Z,1.30
2022-08-26T23:31:22.325Z,1.10
2022-08-26T23:34:07.675Z,1.13
2022-08-26T23:36:34.406Z,1.20
2022-08-26T23:39:02.042Z,1.20
2022-08-26T23:41:28.740Z,1.35
2022-08-26T23:43:55.395Z,1.33
2022-08-26T23:46:22.083Z,1.30
2022-08-26T23:48:48.737Z,1.40
2022-08-26T23:51:33.858Z,1.30
2022-08-26T23:54:00.671Z,1.23
2022-08-26T23:56:27.493Z,1.15
2022-08-26T23:58:54.636Z,1.45
